Time;durP1;ratioP1;P1;durP2;ratioP2;P2;SDS_P1;SDS_P2;PMS_P1;PMS_P2;Temp;Humidity;BMP_temperature;BMP_pressure;BME280_temperature;BME280_humidity;BME280_pressure;Samples;Min_cycle;Max_cycle;Signal;HPM_P1;HPM_P2
2021/08/11 00:01:51;;;;;;;11.47;9.50;;;14.10;99.90;;;;;;5092200;28;20376;-78
2021/08/11 00:04:16;;;;;;;12.10;9.60;;;14.10;99.90;;;;;;5091736;28;20934;-79
2021/08/11 00:06:42;;;;;;;10.43;9.17;;;14.00;99.90;;;;;;5092219;28;20459;-78
2021/08/11 00:09:07;;;;;;;11.27;9.77;;;14.00;99.90;;;;;;5091799;28;20734;-78
2021/08/11 00:11:34;;;;;;;12.50;10.00;;;13.90;99.90;;;;;;5092008;28;20373;-81
2021/08/11 00:14:00;;;;;;;11.77;10.20;;;14.00;99.90;;;;;;5091826;28;20416;-80
2021/08/11 00:16:26;;;;;;;11.00;9.73;;;13.90;99.90;;;;;;5091913;28;20381;-82
2021/08/11 00:18:52;;;;;;;13.38;10.35;;;13.90;99.90;;;;;;5091707;28;20377;-77
2021/08/11 00:21:17;;;;;;;12.38;10.63;;;13.90;99.90;;;;;;5091532;28;20384;-80
2021/08/11 00:23:43;;;;;;;12.00;10.57;;;13.80;99.90;;;;;;5091672;28;20425;-83
2021/08/11 00:26:09;;;;;;;11.98;10.40;;;13.80;99.90;;;;;;5091543;28;20373;-80
2021/08/11 00:28:34;;;;;;;11.80;9.35;;;13.70;99.90;;;;;;5091456;28;20408;-80
2021/08/11 00:31:01;;;;;;;12.33;10.30;;;13.70;99.90;;;;;;5091612;28;20788;-83
2021/08/11 00:33:26;;;;;;;11.07;9.13;;;13.70;99.90;;;;;;5091566;28;20372;-82
2021/08/11 00:35:52;;;;;;;12.07;9.77;;;13.60;99.90;;;;;;5073033;28;20401;-82
2021/08/11 00:38:19;;;;;;;11.82;9.43;;;13.60;99.90;;;;;;5072833;28;20372;-81
2021/08/11 00:40:46;;;;;;;12.13;9.90;;;13.60;99.90;;;;;;5073167;28;21443;-81
2021/08/11 00:43:11;;;;;;;10.65;9.35;;;13.60;99.90;;;;;;5091257;28;20369;-83
2021/08/11 00:45:38;;;;;;;11.13;9.67;;;13.60;99.90;;;;;;5072945;28;20421;-83
2021/08/11 00:48:06;;;;;;;12.13;10.25;;;13.60;99.90;;;;;;5090996;28;20373;-80
2021/08/11 00:50:31;;;;;;;10.50;9.40;;;13.60;99.90;;;;;;5091128;28;20873;-84
2021/08/11 00:52:57;;;;;;;10.57;8.73;;;13.50;99.90;;;;;;5091326;28;20373;-81
2021/08/11 00:55:24;;;;;;;11.33;9.30;;;13.50;99.90;;;;;;5072837;28;20407;-81
2021/08/11 00:57:53;;;;;;;11.15;9.75;;;13.50;99.90;;;;;;5090857;28;20400;-83
2021/08/11 01:00:20;;;;;;;13.00;10.53;;;13.50;99.90;;;;;;5090971;28;20365;-79
2021/08/11 01:02:46;;;;;;;11.40;9.93;;;13.40;99.90;;;;;;5090892;28;20376;-83
2021/08/11 01:05:13;;;;;;;12.27;9.93;;;13.40;99.90;;;;;;5072285;28;20821;-81
2021/08/11 01:07:39;;;;;;;10.57;9.30;;;13.40;99.90;;;;;;5090801;28;20504;-79
2021/08/11 01:10:06;;;;;;;10.63;8.98;;;13.30;99.90;;;;;;5072645;28;20463;-83
2021/08/11 01:12:33;;;;;;;10.48;9.27;;;13.30;99.90;;;;;;5090698;28;20460;-82
2021/08/11 01:15:00;;;;;;;12.27;10.70;;;13.30;99.90;;;;;;5090411;28;20427;-81
2021/08/11 01:17:27;;;;;;;12.57;10.70;;;13.30;99.90;;;;;;5090539;28;20372;-81
2021/08/11 01:19:57;;;;;;;14.53;11.97;;;13.30;99.90;;;;;;5090742;28;20404;-83
2021/08/11 01:22:47;;;;;;;11.93;10.65;;;13.30;99.90;;;;;;5090510;28;20385;-79
2021/08/11 01:25:25;;;;;;;12.90;10.77;;;13.30;99.90;;;;;;5072341;28;20392;-79
2021/08/11 01:28:12;;;;;;;16.47;11.97;;;13.30;99.90;;;;;;5089861;28;20447;-82
2021/08/11 01:30:57;;;;;;;19.83;13.30;;;13.20;99.90;;;;;;5072324;28;20458;-81
2021/08/11 01:33:47;;;;;;;19.53;14.03;;;13.20;99.90;;;;;;5072412;28;20387;-81
2021/08/11 01:36:22;;;;;;;16.27;13.15;;;13.10;99.90;;;;;;5071904;28;20447;-80
2021/08/11 01:38:56;;;;;;;17.23;13.55;;;13.10;99.90;;;;;;5090214;28;20376;-85
2021/08/11 01:41:28;;;;;;;15.45;12.93;;;13.10;99.90;;;;;;5074191;28;20547;-82
2021/08/11 01:43:56;;;;;;;14.77;12.15;;;13.10;99.90;;;;;;5090408;28;20365;-82
2021/08/11 01:46:23;;;;;;;14.32;12.13;;;13.10;99.90;;;;;;5090284;28;20365;-79
2021/08/11 01:48:49;;;;;;;16.90;12.43;;;13.00;99.90;;;;;;5090179;28;20364;-79
2021/08/11 01:51:15;;;;;;;14.37;12.13;;;13.00;99.90;;;;;;5071113;28;20449;-82
2021/08/11 01:53:41;;;;;;;14.37;12.10;;;13.00;99.90;;;;;;5089569;28;20373;-77
2021/08/11 01:56:08;;;;;;;13.80;12.05;;;12.90;99.90;;;;;;5089882;28;20450;-82
2021/08/11 01:58:34;;;;;;;13.25;11.90;;;12.90;99.90;;;;;;5070918;28;20368;-82
2021/08/11 02:01:04;;;;;;;14.50;12.70;;;12.90;99.90;;;;;;5089584;28;20379;-79
2021/08/11 02:03:31;;;;;;;16.05;12.52;;;12.90;99.90;;;;;;5089407;28;20368;-80
2021/08/11 02:05:57;;;;;;;16.90;14.30;;;12.90;99.90;;;;;;5089262;28;20376;-79
2021/08/11 02:08:23;;;;;;;19.08;13.90;;;12.90;99.90;;;;;;5088783;28;20369;-83
2021/08/11 02:10:52;;;;;;;20.58;14.98;;;12.90;99.90;;;;;;5071072;28;20371;-83
2021/08/11 02:13:17;;;;;;;26.20;15.63;;;12.90;99.90;;;;;;5089310;28;20372;-79
2021/08/11 02:15:50;;;;;;;24.10;15.68;;;12.80;99.90;;;;;;5089573;28;20399;-82
2021/08/11 02:18:16;;;;;;;25.13;16.10;;;12.90;99.90;;;;;;5089386;28;20847;-79
2021/08/11 02:20:42;;;;;;;19.57;14.53;;;12.90;99.90;;;;;;5070798;28;20472;-78
2021/08/11 02:23:09;;;;;;;19.73;16.08;;;12.90;99.90;;;;;;5089455;28;20384;-81
2021/08/11 02:25:44;;;;;;;28.33;17.03;;;12.90;99.90;;;;;;5071339;28;20384;-82
2021/08/11 02:28:15;;;;;;;21.17;15.03;;;12.90;99.90;;;;;;5070854;28;20376;-80
2021/08/11 02:31:08;;;;;;;19.10;14.77;;;12.90;99.90;;;;;;5071229;28;20465;-81
2021/08/11 02:33:56;;;;;;;17.33;14.98;;;13.00;99.90;;;;;;5071032;28;20381;-81
2021/08/11 02:36:28;;;;;;;16.30;14.55;;;12.90;99.90;;;;;;5086375;28;20775;-80
2021/08/11 02:39:01;;;;;;;20.88;16.50;;;12.90;99.90;;;;;;5070386;28;20803;-80
2021/08/11 02:41:34;;;;;;;16.02;13.75;;;12.80;99.90;;;;;;5071048;28;20735;-81
2021/08/11 02:44:10;;;;;;;17.17;14.23;;;12.90;99.90;;;;;;5088959;28;20383;-84
2021/08/11 02:46:40;;;;;;;16.05;14.35;;;12.80;99.90;;;;;;5088926;28;20396;-81
2021/08/11 02:49:09;;;;;;;14.63;13.05;;;12.80;99.90;;;;;;5070401;28;20720;-82
2021/08/11 02:51:36;;;;;;;16.07;13.37;;;12.80;99.90;;;;;;5070947;28;20878;-84
2021/08/11 02:54:07;;;;;;;16.07;14.37;;;12.80;99.90;;;;;;5070737;28;20372;-79
2021/08/11 02:56:33;;;;;;;14.95;13.05;;;12.80;99.90;;;;;;5088796;28;20361;-80
2021/08/11 02:58:59;;;;;;;16.05;13.98;;;12.70;99.90;;;;;;5088582;28;20371;-82
2021/08/11 03:01:28;;;;;;;16.83;13.50;;;12.70;99.90;;;;;;5088316;28;20739;-78
2021/08/11 03:03:55;;;;;;;16.83;14.23;;;12.60;99.90;;;;;;5088457;28;20407;-79
2021/08/11 03:06:21;;;;;;;16.27;14.02;;;12.60;99.90;;;;;;5088486;28;20373;-82
2021/08/11 03:08:47;;;;;;;16.77;14.90;;;12.60;99.90;;;;;;5088083;28;20410;-80
2021/08/11 03:11:13;;;;;;;15.33;13.73;;;12.60;99.90;;;;;;5088592;28;20387;-83
2021/08/11 03:13:42;;;;;;;17.70;14.03;;;12.60;99.90;;;;;;5088790;28;20388;-84
2021/08/11 03:16:12;;;;;;;17.92;14.25;;;12.50;99.90;;;;;;5070085;28;20437;-83
2021/08/11 03:18:38;;;;;;;17.92;14.80;;;12.50;99.90;;;;;;5087629;28;20385;-83
2021/08/11 03:21:04;;;;;;;15.60;13.88;;;12.50;99.90;;;;;;5088209;28;20708;-81
2021/08/11 03:23:30;;;;;;;16.40;14.27;;;12.50;99.90;;;;;;5088452;28;20373;-79
2021/08/11 03:25:55;;;;;;;16.25;13.75;;;12.40;99.90;;;;;;5088623;28;20426;-84
2021/08/11 03:28:21;;;;;;;17.17;14.33;;;12.30;99.90;;;;;;5070370;28;20396;-80
2021/08/11 03:30:47;;;;;;;17.67;15.73;;;12.30;99.90;;;;;;5088823;28;20782;-79
2021/08/11 03:33:12;;;;;;;21.63;16.25;;;12.30;99.90;;;;;;5088588;28;20441;-81
2021/08/11 03:35:38;;;;;;;19.77;15.27;;;12.20;99.90;;;;;;5088456;28;20419;-81
2021/08/11 03:38:04;;;;;;;16.40;14.67;;;12.20;99.90;;;;;;5088530;28;20459;-79
2021/08/11 03:40:29;;;;;;;17.13;14.30;;;12.20;99.90;;;;;;5088625;28;20380;-81
2021/08/11 03:42:55;;;;;;;19.37;15.50;;;12.20;99.90;;;;;;5088596;28;20380;-82
2021/08/11 03:45:21;;;;;;;17.83;14.40;;;12.20;99.90;;;;;;5088541;28;20807;-80
2021/08/11 03:47:47;;;;;;;18.45;15.23;;;12.20;99.90;;;;;;5088465;28;20380;-83
2021/08/11 03:50:17;;;;;;;16.00;13.85;;;12.20;99.90;;;;;;5090179;28;20727;-80
2021/08/11 03:52:43;;;;;;;16.08;13.77;;;12.10;99.90;;;;;;5092506;28;20387;-81
2021/08/11 03:55:09;;;;;;;21.95;17.15;;;12.10;99.90;;;;;;5092120;28;20388;-80
2021/08/11 03:57:35;;;;;;;17.07;14.93;;;12.10;99.90;;;;;;5092325;28;20402;-83
2021/08/11 04:00:00;;;;;;;16.23;14.30;;;12.10;99.90;;;;;;5091722;28;20425;-82
2021/08/11 04:02:26;;;;;;;15.90;14.07;;;12.00;99.90;;;;;;5091536;28;20376;-80
2021/08/11 04:04:52;;;;;;;15.53;13.23;;;12.10;99.90;;;;;;5091897;28;20376;-81
2021/08/11 04:07:17;;;;;;;16.40;13.83;;;12.10;99.90;;;;;;5091959;28;20368;-79
2021/08/11 04:09:43;;;;;;;17.45;14.60;;;12.10;99.90;;;;;;5091874;28;20380;-80
2021/08/11 04:12:09;;;;;;;21.13;16.40;;;12.10;99.90;;;;;;5091841;28;20379;-83
2021/08/11 04:14:34;;;;;;;17.77;14.75;;;12.20;99.90;;;;;;5091851;28;20412;-80
2021/08/11 04:17:00;;;;;;;17.73;14.60;;;12.10;99.90;;;;;;5091602;28;20735;-79
2021/08/11 04:19:25;;;;;;;17.33;14.43;;;12.10;99.90;;;;;;5091610;28;20380;-79
2021/08/11 04:21:51;;;;;;;15.50;13.80;;;12.10;99.90;;;;;;5091492;28;20492;-82
2021/08/11 04:24:17;;;;;;;15.00;13.40;;;12.10;99.90;;;;;;5091679;28;20371;-82
2021/08/11 04:26:42;;;;;;;16.70;15.00;;;12.20;99.90;;;;;;5072964;28;20384;-80
2021/08/11 04:29:08;;;;;;;16.60;14.32;;;12.20;99.90;;;;;;5091203;28;20921;-78
2021/08/11 04:31:33;;;;;;;18.03;14.93;;;12.20;99.90;;;;;;5091633;28;20380;-79
2021/08/11 04:33:59;;;;;;;16.93;15.03;;;12.20;99.90;;;;;;5073280;28;20700;-78
2021/08/11 04:36:24;;;;;;;16.73;14.45;;;12.30;99.90;;;;;;5091275;28;20746;-83
2021/08/11 04:38:50;;;;;;;18.00;15.20;;;12.30;99.90;;;;;;5091552;28;20403;-83
2021/08/11 04:41:16;;;;;;;18.42;15.15;;;12.40;99.90;;;;;;5091417;28;20376;-79
2021/08/11 04:43:42;;;;;;;17.92;15.75;;;12.50;99.90;;;;;;5090552;28;20885;-83
2021/08/11 04:46:08;;;;;;;20.73;16.13;;;12.50;99.90;;;;;;5091175;28;20372;-82
2021/08/11 04:48:33;;;;;;;18.92;16.00;;;12.60;99.90;;;;;;5091145;28;20380;-81
2021/08/11 04:50:59;;;;;;;21.13;17.03;;;12.70;99.90;;;;;;5072713;28;20464;-80
2021/08/11 04:53:24;;;;;;;18.38;16.08;;;12.80;99.90;;;;;;5090839;28;20726;-81
2021/08/11 04:55:50;;;;;;;24.63;19.73;;;12.90;99.90;;;;;;5090117;28;20487;-80
2021/08/11 04:58:16;;;;;;;26.33;20.63;;;13.00;99.90;;;;;;5091638;28;20449;-79
2021/08/11 05:00:42;;;;;;;23.13;19.52;;;13.10;99.90;;;;;;5091228;28;20376;-83
2021/08/11 05:03:07;;;;;;;22.38;18.52;;;13.20;99.90;;;;;;5089892;28;20369;-79
2021/08/11 05:05:33;;;;;;;27.47;20.53;;;13.40;99.90;;;;;;5090315;28;20708;-80
2021/08/11 05:07:59;;;;;;;24.58;20.25;;;13.50;99.90;;;;;;5090170;28;20369;-80
2021/08/11 05:10:24;;;;;;;24.05;20.50;;;13.50;99.90;;;;;;5090104;28;21022;-80
2021/08/11 05:12:50;;;;;;;26.77;20.20;;;13.70;99.90;;;;;;5090012;28;20427;-79
2021/08/11 05:15:16;;;;;;;25.15;21.95;;;13.80;99.90;;;;;;5071748;28;20419;-78
2021/08/11 05:17:42;;;;;;;23.67;20.90;;;14.00;99.90;;;;;;5090011;28;20387;-82
2021/08/11 05:20:08;;;;;;;31.50;24.83;;;14.10;99.90;;;;;;5089665;28;20863;-81
2021/08/11 05:22:34;;;;;;;24.63;21.52;;;14.30;99.90;;;;;;5089772;28;20426;-81
2021/08/11 05:24:59;;;;;;;27.50;23.37;;;14.50;99.90;;;;;;5089711;28;20364;-78
2021/08/11 05:27:26;;;;;;;23.90;21.40;;;14.70;99.90;;;;;;5089705;28;20384;-77
2021/08/11 05:29:52;;;;;;;25.65;23.08;;;14.90;99.90;;;;;;5088569;28;20369;-81
2021/08/11 05:32:17;;;;;;;27.83;22.37;;;15.00;99.90;;;;;;5089625;28;20845;-80
2021/08/11 05:34:44;;;;;;;26.15;23.25;;;15.10;99.90;;;;;;5088714;28;20396;-82
2021/08/11 05:37:10;;;;;;;30.20;24.97;;;15.20;99.90;;;;;;5089304;28;20456;-81
2021/08/11 05:39:36;;;;;;;28.30;25.40;;;15.20;99.90;;;;;;5070776;28;20437;-82
2021/08/11 05:42:02;;;;;;;28.47;25.47;;;15.20;99.90;;;;;;5089413;28;20483;-81
2021/08/11 05:44:28;;;;;;;28.83;24.90;;;15.30;99.90;;;;;;5089229;28;20382;-83
2021/08/11 05:46:53;;;;;;;27.30;24.40;;;15.30;99.90;;;;;;5089384;28;20372;-82
2021/08/11 05:49:19;;;;;;;29.87;25.03;;;15.40;99.90;;;;;;5089040;28;20400;-81
2021/08/11 05:51:45;;;;;;;25.98;23.05;;;15.40;99.90;;;;;;5089340;28;20700;-80
2021/08/11 05:54:11;;;;;;;25.77;22.98;;;15.50;99.90;;;;;;5088708;28;20391;-79
2021/08/11 05:56:36;;;;;;;25.60;22.27;;;15.70;99.90;;;;;;5071681;28;20451;-78
2021/08/11 05:59:02;;;;;;;27.10;23.97;;;15.80;99.90;;;;;;5071472;28;20367;-79
2021/08/11 06:01:28;;;;;;;25.92;23.13;;;15.80;99.90;;;;;;5090255;28;20921;-79
2021/08/11 06:03:55;;;;;;;25.10;22.50;;;15.90;99.90;;;;;;5089136;28;20373;-78
2021/08/11 06:06:21;;;;;;;21.42;19.27;;;15.90;99.90;;;;;;5089171;28;20380;-77
2021/08/11 06:08:46;;;;;;;23.67;21.20;;;16.10;99.90;;;;;;5088833;28;20384;-80
2021/08/11 06:11:12;;;;;;;22.70;20.45;;;16.20;99.90;;;;;;5088609;28;20372;-79
2021/08/11 06:13:38;;;;;;;21.93;19.77;;;16.30;99.90;;;;;;5088592;28;20461;-80
2021/08/11 06:16:04;;;;;;;20.65;18.45;;;16.40;99.90;;;;;;5088956;28;20950;-80
2021/08/11 06:18:29;;;;;;;20.88;18.70;;;16.50;99.90;;;;;;5088660;28;20452;-80
2021/08/11 06:20:55;;;;;;;21.45;19.17;;;16.60;99.90;;;;;;5070582;28;20511;-80
2021/08/11 06:23:21;;;;;;;21.60;19.50;;;16.50;99.90;;;;;;5089048;28;20449;-82
2021/08/11 06:25:47;;;;;;;22.52;20.13;;;16.70;99.90;;;;;;5089542;28;20368;-79
2021/08/11 06:28:13;;;;;;;21.20;19.02;;;16.90;99.90;;;;;;5089017;28;20387;-79
2021/08/11 06:30:38;;;;;;;23.40;20.00;;;17.10;99.90;;;;;;5088936;28;20388;-79
2021/08/11 06:33:04;;;;;;;21.47;19.23;;;17.10;99.90;;;;;;5088876;28;20365;-80
2021/08/11 06:35:30;;;;;;;20.05;18.05;;;17.30;99.90;;;;;;5088928;28;20436;-78
2021/08/11 06:37:55;;;;;;;19.63;17.63;;;17.40;99.90;;;;;;5071870;28;20400;-81
2021/08/11 06:40:22;;;;;;;19.92;17.77;;;17.50;99.90;;;;;;5088348;28;20419;-79
2021/08/11 06:42:48;;;;;;;18.83;16.98;;;17.50;99.90;;;;;;5088526;28;20388;-83
2021/08/11 06:45:14;;;;;;;20.00;17.73;;;17.80;99.90;;;;;;5088481;28;20380;-80
2021/08/11 06:47:40;;;;;;;19.95;18.02;;;17.90;99.90;;;;;;5088271;28;20429;-77
2021/08/11 06:50:08;;;;;;;20.70;18.60;;;17.80;99.90;;;;;;5085870;28;20487;-78
2021/08/11 06:52:34;;;;;;;21.48;19.23;;;17.80;99.90;;;;;;5088754;28;20870;-82
2021/08/11 06:55:05;;;;;;;21.50;19.50;;;17.70;99.90;;;;;;5088010;28;20402;-79
2021/08/11 06:57:31;;;;;;;21.38;19.27;;;17.70;99.90;;;;;;5085976;28;20385;-79
2021/08/11 06:59:56;;;;;;;22.90;20.53;;;17.80;99.90;;;;;;5069989;28;20389;-80
2021/08/11 07:02:22;;;;;;;22.70;20.42;;;17.90;99.90;;;;;;5088220;28;20376;-82
2021/08/11 07:04:48;;;;;;;22.60;20.30;;;18.20;99.90;;;;;;5087925;28;20475;-81
2021/08/11 07:07:13;;;;;;;22.95;20.67;;;18.40;99.90;;;;;;5070296;28;20743;-79
2021/08/11 07:09:39;;;;;;;23.17;20.87;;;18.30;99.90;;;;;;5087923;28;20373;-78
2021/08/11 07:12:05;;;;;;;22.70;20.27;;;18.30;99.90;;;;;;5081458;28;20481;-83
2021/08/11 07:14:31;;;;;;;21.57;19.47;;;18.40;99.90;;;;;;5086538;28;20495;-82
2021/08/11 07:16:57;;;;;;;20.23;18.10;;;18.60;99.90;;;;;;5087542;28;20369;-80
2021/08/11 07:19:22;;;;;;;19.87;17.87;;;18.80;99.90;;;;;;5086985;28;20380;-80
2021/08/11 07:21:48;;;;;;;20.80;18.90;;;18.80;99.90;;;;;;5087462;28;20391;-80
2021/08/11 07:24:14;;;;;;;21.53;19.50;;;18.80;99.90;;;;;;5087240;28;20380;-77
2021/08/11 07:26:40;;;;;;;23.00;20.80;;;18.80;99.90;;;;;;5091428;28;20463;-79
2021/08/11 07:29:05;;;;;;;23.53;21.13;;;18.80;99.90;;;;;;5090713;28;20860;-79
2021/08/11 07:31:31;;;;;;;24.65;22.10;;;18.60;99.90;;;;;;5073249;28;20747;-79
2021/08/11 07:33:57;;;;;;;23.53;21.13;;;18.50;99.90;;;;;;5091688;28;20385;-78
2021/08/11 07:36:22;;;;;;;23.17;20.85;;;18.50;99.90;;;;;;5088683;28;20447;-81
2021/08/11 07:38:48;;;;;;;25.17;22.77;;;18.50;99.90;;;;;;5090647;28;20388;-78
2021/08/11 07:41:13;;;;;;;23.10;20.73;;;18.50;99.90;;;;;;5091573;28;20385;-80
2021/08/11 07:43:39;;;;;;;22.93;20.50;;;18.60;99.90;;;;;;5091382;28;20360;-79
2021/08/11 07:46:05;;;;;;;23.45;21.15;;;18.80;99.90;;;;;;5090830;28;20404;-80
2021/08/11 07:48:31;;;;;;;21.05;19.15;;;19.00;99.90;;;;;;5091010;28;20387;-78
2021/08/11 07:50:57;;;;;;;20.27;18.20;;;19.10;99.90;;;;;;5090313;28;20437;-80
2021/08/11 07:53:22;;;;;;;21.25;19.05;;;19.30;99.90;;;;;;5090711;28;20734;-82
2021/08/11 07:55:48;;;;;;;21.10;19.00;;;19.50;99.90;;;;;;5090967;28;20407;-82
2021/08/11 07:58:14;;;;;;;19.92;17.95;;;19.30;99.90;;;;;;5090719;28;20377;-77
2021/08/11 08:00:39;;;;;;;18.20;16.27;;;19.40;99.90;;;;;;5090915;28;20372;-80
2021/08/11 08:03:05;;;;;;;17.15;15.38;;;19.60;99.90;;;;;;5090975;28;20368;-81
2021/08/11 08:05:30;;;;;;;17.13;15.43;;;19.90;99.90;;;;;;5071924;28;20393;-82
2021/08/11 08:07:56;;;;;;;18.23;16.33;;;20.00;99.90;;;;;;5090642;28;20399;-80
2021/08/11 08:10:22;;;;;;;18.00;16.07;;;19.80;99.90;;;;;;5090207;28;20376;-80
2021/08/11 08:12:48;;;;;;;18.13;16.25;;;19.80;99.90;;;;;;5090815;28;20373;-82
2021/08/11 08:15:15;;;;;;;18.02;15.13;;;19.90;99.90;;;;;;5089679;28;20410;-80
2021/08/11 08:17:42;;;;;;;15.65;13.82;;;20.10;99.90;;;;;;5090181;28;20744;-79
2021/08/11 08:20:08;;;;;;;14.63;13.13;;;20.50;99.90;;;;;;5071042;28;20391;-80
2021/08/11 08:22:34;;;;;;;14.02;12.10;;;20.60;99.90;;;;;;5089398;28;21726;-78
2021/08/11 08:25:00;;;;;;;12.50;11.20;;;20.60;99.90;;;;;;5089137;28;20388;-79
2021/08/11 08:27:27;;;;;;;14.20;12.75;;;20.90;99.90;;;;;;5089714;28;20435;-77
2021/08/11 08:29:53;;;;;;;12.88;11.45;;;20.80;99.90;;;;;;5069303;28;20393;-80
2021/08/11 08:32:19;;;;;;;15.93;12.40;;;20.90;99.90;;;;;;5090150;28;20384;-81
2021/08/11 08:34:45;;;;;;;14.55;13.00;;;20.60;99.90;;;;;;5072001;28;20416;-78
2021/08/11 08:37:11;;;;;;;13.50;12.10;;;20.50;99.90;;;;;;5088750;28;20383;-82
2021/08/11 08:39:37;;;;;;;12.60;11.05;;;20.70;99.90;;;;;;5090720;28;20738;-80
2021/08/11 08:42:04;;;;;;;13.17;11.10;;;20.80;99.90;;;;;;5090619;28;20380;-78
2021/08/11 08:44:30;;;;;;;11.02;9.60;;;21.10;99.90;;;;;;5090425;28;20433;-83
2021/08/11 08:46:56;;;;;;;12.23;10.93;;;21.40;99.90;;;;;;5090151;28;20372;-81
2021/08/11 08:49:23;;;;;;;12.60;10.02;;;21.60;99.90;;;;;;5090198;28;20371;-80
2021/08/11 08:51:49;;;;;;;13.17;9.23;;;21.70;99.90;;;;;;5071464;28;20396;-80
2021/08/11 08:54:27;;;;;;;9.65;8.63;;;21.80;99.90;;;;;;5090123;28;20380;-79
2021/08/11 08:56:52;;;;;;;9.45;8.45;;;21.80;99.90;;;;;;5090346;28;20471;-77
2021/08/11 08:59:18;;;;;;;8.67;7.73;;;21.70;99.90;;;;;;5089724;28;20945;-81
2021/08/11 09:01:44;;;;;;;8.30;7.22;;;21.80;99.90;;;;;;5090035;28;20474;-80
2021/08/11 09:04:10;;;;;;;9.17;7.43;;;22.10;99.90;;;;;;5090160;28;20397;-81
2021/08/11 09:06:37;;;;;;;8.50;7.00;;;22.40;99.90;;;;;;5090142;28;20383;-79
2021/08/11 09:09:04;;;;;;;7.90;6.60;;;22.60;99.90;;;;;;5088757;28;20438;-79
2021/08/11 09:11:30;;;;;;;8.52;6.70;;;22.60;99.90;;;;;;5089387;28;20427;-79
2021/08/11 09:14:16;;;;;;;10.63;7.38;;;22.60;99.90;;;;;;5071771;28;20400;-77
2021/08/11 09:16:53;;;;;;;9.43;7.95;;;22.20;99.90;;;;;;5070009;28;20391;-78
2021/08/11 09:19:20;;;;;;;10.15;7.72;;;21.50;99.90;;;;;;5089342;28;20395;-82
2021/08/11 09:21:58;;;;;;;7.78;5.95;;;21.10;99.90;;;;;;5071396;28;20384;-80
2021/08/11 09:24:25;;;;;;;7.55;5.75;;;21.10;99.90;;;;;;5089384;28;20474;-81
2021/08/11 09:26:51;;;;;;;8.30;6.40;;;21.60;99.90;;;;;;5085922;28;20388;-79
2021/08/11 09:29:18;;;;;;;8.43;6.60;;;22.10;99.90;;;;;;5089650;28;20376;-81
2021/08/11 09:31:44;;;;;;;9.30;6.87;;;22.50;99.90;;;;;;5089861;28;20434;-79
2021/08/11 09:34:11;;;;;;;8.18;6.43;;;22.70;99.90;;;;;;5070913;28;20384;-79
2021/08/11 09:36:48;;;;;;;6.78;5.50;;;22.20;99.90;;;;;;5067963;28;20417;-81
2021/08/11 09:39:15;;;;;;;7.88;5.35;;;21.60;99.90;;;;;;5085644;28;20445;-81
2021/08/11 09:42:02;;;;;;;8.32;5.65;;;21.70;99.90;;;;;;5086555;28;20738;-84
2021/08/11 09:44:28;;;;;;;6.82;5.68;;;22.00;99.90;;;;;;5088407;28;20440;-80
2021/08/11 09:46:54;;;;;;;6.07;5.47;;;21.90;99.90;;;;;;5088211;28;20756;-79
2021/08/11 09:49:25;;;;;;;7.00;5.53;;;21.60;99.90;;;;;;5088291;28;20464;-81
2021/08/11 09:51:58;;;;;;;6.87;5.43;;;21.70;99.90;;;;;;5067420;28;20388;-82
2021/08/11 09:54:24;;;;;;;6.90;5.22;;;22.00;99.90;;;;;;5088938;28;20425;-78
2021/08/11 09:56:50;;;;;;;6.90;5.03;;;22.00;99.90;;;;;;5089010;28;20368;-79
2021/08/11 09:59:16;;;;;;;5.13;4.63;;;21.90;99.90;;;;;;5088494;28;20880;-83
2021/08/11 10:01:42;;;;;;;5.97;5.10;;;22.00;99.90;;;;;;5070627;28;20380;-77
2021/08/11 10:04:10;;;;;;;7.53;5.07;;;21.90;99.90;;;;;;5070164;28;20368;-81
2021/08/11 10:06:37;;;;;;;6.25;4.93;;;21.90;99.90;;;;;;5088625;28;20862;-82
2021/08/11 10:09:16;;;;;;;5.85;5.00;;;22.00;99.90;;;;;;5088500;28;20455;-81
2021/08/11 10:11:44;;;;;;;5.60;4.97;;;22.40;99.90;;;;;;5087548;28;20399;-81
2021/08/11 10:14:14;;;;;;;6.30;5.10;;;22.40;99.90;;;;;;5088483;28;20364;-78
2021/08/11 10:16:41;;;;;;;6.07;4.93;;;22.50;99.90;;;;;;5088351;28;20412;-80
2021/08/11 10:19:08;;;;;;;7.05;5.40;;;22.80;99.90;;;;;;5088457;28;20738;-79
2021/08/11 10:21:44;;;;;;;6.07;4.95;;;22.60;99.90;;;;;;5087694;28;20411;-80
2021/08/11 10:24:10;;;;;;;5.35;4.63;;;22.50;99.90;;;;;;5088679;28;20372;-80
2021/08/11 10:26:38;;;;;;;6.03;4.90;;;22.70;99.90;;;;;;5086006;28;21440;-80
2021/08/11 10:29:08;;;;;;;6.80;4.57;;;23.10;99.90;;;;;;5087795;28;20457;-81
2021/08/11 10:31:35;;;;;;;5.78;4.30;;;23.40;99.90;;;;;;5085535;28;20738;-83
2021/08/11 10:34:01;;;;;;;6.30;4.82;;;23.60;99.90;;;;;;5070129;28;20394;-82
2021/08/11 10:36:30;;;;;;;6.32;4.35;;;24.20;99.90;;;;;;5089140;28;20400;-80
2021/08/11 10:38:58;;;;;;;4.63;4.05;;;24.20;99.90;;;;;;5087806;28;21391;-84
2021/08/11 10:41:32;;;;;;;6.00;4.80;;;24.00;99.90;;;;;;5086877;28;20411;-81
2021/08/11 10:43:59;;;;;;;7.63;4.63;;;23.70;99.90;;;;;;5101574;28;20392;-81
2021/08/11 10:46:37;;;;;;;5.90;4.38;;;23.30;99.90;;;;;;5078601;28;20858;-78
2021/08/11 10:49:05;;;;;;;5.50;4.82;;;22.90;99.90;;;;;;5085456;28;20941;-79
2021/08/11 10:51:42;;;;;;;5.53;4.45;;;22.60;99.90;;;;;;5087508;28;20372;-81
2021/08/11 10:54:08;;;;;;;5.82;4.55;;;22.60;99.90;;;;;;5085902;28;20376;-80
2021/08/11 10:56:42;;;;;;;6.33;4.43;;;22.50;99.90;;;;;;5069745;28;20901;-79
2021/08/11 10:59:29;;;;;;;5.20;4.55;;;22.60;99.90;;;;;;5068468;28;20372;-80
2021/08/11 11:01:57;;;;;;;5.70;4.20;;;22.60;99.90;;;;;;5063841;28;20377;-84
2021/08/11 11:04:43;;;;;;;5.20;4.28;;;22.60;99.90;;;;;;5081795;28;20469;-81
2021/08/11 11:07:09;;;;;;;4.90;4.38;;;22.70;99.90;;;;;;5084005;28;20420;-81
2021/08/11 11:09:36;;;;;;;6.65;4.97;;;22.90;99.90;;;;;;5066655;28;20383;-80
2021/08/11 11:12:17;;;;;;;6.05;4.68;;;22.90;99.90;;;;;;5067031;28;20751;-81
2021/08/11 11:14:57;;;;;;;5.53;4.63;;;22.70;99.90;;;;;;5084620;28;20946;-83
2021/08/11 11:17:30;;;;;;;4.88;4.30;;;22.50;99.90;;;;;;5066612;28;20747;-82
2021/08/11 11:20:08;;;;;;;4.80;4.40;;;22.30;99.90;;;;;;5084759;28;20434;-79
2021/08/11 11:22:40;;;;;;;4.93;4.27;;;22.20;99.90;;;;;;5066460;28;20389;-78
2021/08/11 11:25:15;;;;;;;4.80;4.30;;;22.20;99.90;;;;;;5085295;28;20373;-81
2021/08/11 11:30:38;;;;;;;4.78;4.32;;;22.50;99.90;;;;;;5068819;28;20376;-81
2021/08/11 11:33:30;;;;;;;5.13;4.63;;;22.60;99.90;;;;;;5085175;28;20492;-81
2021/08/11 11:36:22;;;;;;;6.70;4.40;;;22.80;99.90;;;;;;5084912;28;20414;-82
2021/08/11 11:39:17;;;;;;;4.97;4.50;;;22.60;99.90;;;;;;5086086;28;20739;-81
2021/08/11 11:42:15;;;;;;;6.22;4.75;;;22.10;99.90;;;;;;5063862;28;20401;-79
2021/08/11 11:44:45;;;;;;;7.38;4.80;;;21.70;99.90;;;;;;5060324;28;20392;-79
2021/08/11 11:47:13;;;;;;;7.13;4.87;;;21.80;99.90;;;;;;5083782;28;20818;-79
2021/08/11 11:49:39;;;;;;;6.00;4.63;;;22.20;99.90;;;;;;5086185;28;20460;-81
2021/08/11 11:52:13;;;;;;;8.20;4.95;;;22.50;99.90;;;;;;5086384;28;20369;-80
2021/08/11 11:54:46;;;;;;;8.50;5.30;;;22.80;99.90;;;;;;5084843;28;20411;-84
2021/08/11 11:57:16;;;;;;;6.80;5.18;;;23.10;99.90;;;;;;5084016;28;20803;-83
2021/08/11 11:59:44;;;;;;;5.13;4.47;;;23.10;99.90;;;;;;5086421;28;20387;-80
2021/08/11 12:02:21;;;;;;;5.93;4.70;;;23.10;99.90;;;;;;5086548;28;20372;-82
2021/08/11 12:05:06;;;;;;;6.43;4.82;;;23.00;99.90;;;;;;5085611;28;20459;-81
2021/08/11 12:07:33;;;;;;;6.10;5.15;;;23.10;99.90;;;;;;5069196;28;20965;-83
2021/08/11 12:10:00;;;;;;;7.63;5.22;;;23.40;99.90;;;;;;5086503;28;20928;-79
2021/08/11 12:12:26;;;;;;;6.18;5.03;;;23.60;99.90;;;;;;5090987;28;20785;-80
2021/08/11 12:14:52;;;;;;;6.90;5.03;;;23.80;99.90;;;;;;5090408;28;20886;-80
2021/08/11 12:17:30;;;;;;;6.47;5.18;;;24.00;99.90;;;;;;5091160;28;20376;-80
2021/08/11 12:19:57;;;;;;;6.20;4.78;;;24.00;99.90;;;;;;5087925;28;20459;-79
2021/08/11 12:22:32;;;;;;;5.70;4.97;;;23.90;99.90;;;;;;5089587;28;20896;-82
2021/08/11 12:24:59;;;;;;;6.88;4.70;;;23.80;99.90;;;;;;5089062;28;20383;-82
2021/08/11 12:27:25;;;;;;;6.03;4.80;;;23.80;99.90;;;;;;5090246;28;20415;-82
2021/08/11 12:30:14;;;;;;;7.47;5.00;;;23.60;99.90;;;;;;5089245;28;20412;-80
2021/08/11 12:32:40;;;;;;;7.63;5.10;;;23.60;99.90;;;;;;5088574;28;20365;-83
2021/08/11 12:35:06;;;;;;;7.17;5.40;;;23.40;99.90;;;;;;5088962;28;20913;-81
2021/08/11 12:37:43;;;;;;;6.20;5.55;;;23.40;99.90;;;;;;5089530;28;20376;-80
2021/08/11 12:40:25;;;;;;;6.95;5.40;;;23.40;99.90;;;;;;5089901;28;20467;-81
2021/08/11 12:42:55;;;;;;;6.90;5.33;;;23.30;99.90;;;;;;5089794;28;20506;-79